createdAt,value
2019-01-21T00:00:13.277Z,-2.10
2019-01-21T00:02:41.745Z,-2.10
2019-01-21T00:05:10.308Z,-2.10
2019-01-21T00:07:38.814Z,-2.10
2019-01-21T00:10:08.333Z,-2.00
2019-01-21T00:12:36.798Z,-2.00
2019-01-21T00:15:08.083Z,-2.00
2019-01-21T00:17:36.691Z,-2.00
2019-01-21T00:20:06.792Z,-2.00
2019-01-21T00:22:35.279Z,-2.00
2019-01-21T00:25:04.523Z,-2.00
2019-01-21T00:27:32.990Z,-2.00
2019-01-21T00:30:01.464Z,-2.00
2019-01-21T00:32:29.944Z,-2.00
2019-01-21T00:34:58.418Z,-2.00
2019-01-21T00:37:26.881Z,-2.00
2019-01-21T00:39:55.346Z,-1.90
2019-01-21T00:42:23.815Z,-1.90
2019-01-21T00:44:52.276Z,-1.90
2019-01-21T00:47:20.759Z,-2.00
2019-01-21T00:49:49.358Z,-2.00
2019-01-21T00:52:17.825Z,-2.00
2019-01-21T00:54:46.292Z,-2.00
2019-01-21T00:57:14.847Z,-2.00
2019-01-21T00:59:43.385Z,-2.00
2019-01-21T01:02:11.855Z,-1.90
2019-01-21T01:04:40.392Z,-1.90
2019-01-21T01:07:08.926Z,-1.90
2019-01-21T01:09:37.384Z,-1.90
2019-01-21T01:12:05.860Z,-2.00
2019-01-21T01:14:34.321Z,-1.90
2019-01-21T01:17:02.800Z,-1.90
2019-01-21T01:19:31.268Z,-1.90
2019-01-21T01:21:59.970Z,-1.90
2019-01-21T01:24:28.536Z,-1.90
2019-01-21T01:26:57.014Z,-1.90
2019-01-21T01:29:25.479Z,-1.90
2019-01-21T01:31:53.945Z,-1.90
2019-01-21T01:34:22.392Z,-1.90
2019-01-21T01:36:51.253Z,-1.90
2019-01-21T01:39:19.719Z,-1.90
2019-01-21T01:41:48.202Z,-2.00
2019-01-21T01:44:16.744Z,-2.00
2019-01-21T01:46:45.590Z,-2.10
2019-01-21T01:49:14.122Z,-2.20
2019-01-21T01:51:42.644Z,-2.20
2019-01-21T01:54:11.410Z,-2.30
2019-01-21T01:56:39.887Z,-2.40
2019-01-21T01:59:08.844Z,-2.50
2019-01-21T02:01:37.399Z,-2.60
2019-01-21T02:04:05.940Z,-2.60
2019-01-21T02:06:34.415Z,-2.80
2019-01-21T02:09:03.920Z,-2.90
2019-01-21T02:11:32.388Z,-2.90
2019-01-21T02:14:00.939Z,-3.00
2019-01-21T02:16:29.470Z,-3.10
2019-01-21T02:18:58.010Z,-3.10
2019-01-21T02:21:28.203Z,-3.10
2019-01-21T02:23:59.782Z,-3.20
2019-01-21T02:26:30.419Z,-3.20
2019-01-21T02:29:05.079Z,-3.10
2019-01-21T02:31:56.130Z,-3.20
2019-01-21T02:34:33.559Z,-3.10
2019-01-21T02:37:27.906Z,-3.10
2019-01-21T02:40:12.074Z,-3.20
2019-01-21T02:42:46.469Z,-3.10
2019-01-21T02:45:43.758Z,-3.10
2019-01-21T02:48:21.303Z,-3.10
2019-01-21T02:51:01.189Z,-3.10
2019-01-21T02:53:35.882Z,-3.10
2019-01-21T02:56:10.225Z,-3.20
2019-01-21T02:58:50.423Z,-3.20
2019-01-21T03:01:27.808Z,-3.20
2019-01-21T03:04:15.668Z,-3.20
2019-01-21T03:07:08.473Z,-3.20
2019-01-21T03:09:52.173Z,-3.20
2019-01-21T03:12:35.346Z,-3.20
2019-01-21T03:15:31.404Z,-3.20
2019-01-21T03:18:24.148Z,-3.20
2019-01-21T03:21:07.711Z,-3.20
2019-01-21T03:23:57.127Z,-3.20
2019-01-21T03:26:37.768Z,-3.20
2019-01-21T03:29:26.108Z,-3.30
2019-01-21T03:32:18.910Z,-3.30
2019-01-21T03:34:56.235Z,-3.30
2019-01-21T03:37:27.907Z,-3.30
2019-01-21T03:40:19.399Z,-3.40
2019-01-21T03:42:51.026Z,-3.50
2019-01-21T03:45:31.895Z,-3.50
2019-01-21T03:48:06.224Z,-3.50
2019-01-21T03:51:01.239Z,-3.50
2019-01-21T03:53:41.910Z,-3.50
2019-01-21T03:56:11.800Z,-3.50
2019-01-21T03:58:52.177Z,-3.60
2019-01-21T04:01:57.313Z,-3.60
2019-01-21T04:04:45.673Z,-3.60
2019-01-21T04:07:17.459Z,-3.60
2019-01-21T04:09:54.969Z,-3.50
2019-01-21T04:12:32.149Z,-3.60
2019-01-21T04:15:20.367Z,-3.60
2019-01-21T04:18:01.089Z,-3.60
2019-01-21T04:20:35.743Z,-3.50
2019-01-21T04:23:37.709Z,-3.50
2019-01-21T04:26:36.515Z,-3.50
2019-01-21T04:29:16.759Z,-3.50
2019-01-21T04:31:53.911Z,-3.60
2019-01-21T04:34:28.387Z,-3.60
2019-01-21T04:37:05.778Z,-3.50
2019-01-21T04:39:40.174Z,-3.40
2019-01-21T04:42:14.815Z,-3.40
2019-01-21T04:44:55.305Z,-3.50
2019-01-21T04:47:44.857Z,-3.50
2019-01-21T04:50:22.397Z,-3.50
2019-01-21T04:52:53.991Z,-3.50
2019-01-21T04:55:37.756Z,-3.50
2019-01-21T04:58:36.030Z,-3.50
2019-01-21T05:01:10.496Z,-3.40
2019-01-21T05:03:53.890Z,-3.30
2019-01-21T05:06:45.089Z,-3.30
2019-01-21T05:09:19.318Z,-3.40
2019-01-21T05:12:06.366Z,-3.50
2019-01-21T05:14:46.791Z,-3.50
2019-01-21T05:17:38.222Z,-3.60
2019-01-21T05:20:25.232Z,-3.60
2019-01-21T05:23:19.636Z,-3.50
2019-01-21T05:26:06.368Z,-3.40
2019-01-21T05:28:54.597Z,-3.40
2019-01-21T05:31:46.026Z,-3.40
2019-01-21T05:34:17.769Z,-3.40
2019-01-21T05:36:58.242Z,-3.40
2019-01-21T05:39:35.492Z,-3.50
2019-01-21T05:42:29.613Z,-3.40
2019-01-21T05:45:01.226Z,-3.40
2019-01-21T05:47:38.747Z,-3.40
2019-01-21T05:50:19.407Z,-3.40
2019-01-21T05:53:06.059Z,-3.40
2019-01-21T05:55:55.786Z,-3.40
2019-01-21T05:58:33.413Z,-3.40
2019-01-21T06:01:17.516Z,-3.30
2019-01-21T06:04:01.488Z,-3.40
2019-01-21T06:07:01.883Z,-3.40
2019-01-21T06:10:03.764Z,-3.50
2019-01-21T06:12:56.327Z,-3.50
2019-01-21T06:15:33.608Z,-3.50
2019-01-21T06:18:32.742Z,-3.50
2019-01-21T06:21:21.449Z,-3.50
2019-01-21T06:24:02.118Z,-3.50
2019-01-21T06:26:39.461Z,-3.40
2019-01-21T06:29:19.804Z,-3.40
2019-01-21T06:31:51.418Z,-3.40
2019-01-21T06:34:42.351Z,-3.40
2019-01-21T06:37:19.705Z,-3.40
2019-01-21T06:40:09.810Z,-3.40
2019-01-21T06:42:43.984Z,-3.30
2019-01-21T06:45:15.533Z,-3.30
2019-01-21T06:47:56.128Z,-3.30
2019-01-21T06:50:42.740Z,-3.30
2019-01-21T06:53:25.966Z,-3.30
2019-01-21T06:56:00.295Z,-3.30
2019-01-21T06:58:40.998Z,-3.30
2019-01-21T07:01:27.863Z,-3.40
2019-01-21T07:04:02.094Z,-3.30
2019-01-21T07:06:57.863Z,-3.40
2019-01-21T07:09:47.540Z,-3.30
2019-01-21T07:12:19.113Z,-3.30
2019-01-21T07:15:11.292Z,-3.30
2019-01-21T07:18:13.288Z,-3.30
2019-01-21T07:20:44.900Z,-3.20
2019-01-21T07:23:35.637Z,-3.20
2019-01-21T07:26:21.991Z,-3.20
2019-01-21T07:29:10.080Z,-3.20
2019-01-21T07:31:56.814Z,-3.20
2019-01-21T07:34:50.980Z,-3.10
2019-01-21T07:37:40.994Z,-3.10
2019-01-21T07:40:21.314Z,-3.00
2019-01-21T07:42:58.600Z,-3.00
2019-01-21T07:45:48.339Z,-3.00
2019-01-21T07:48:22.732Z,-2.90
2019-01-21T07:51:15.526Z,-3.00
2019-01-21T07:53:59.188Z,-2.90
2019-01-21T07:56:59.349Z,-2.90
2019-01-21T07:59:58.138Z,-2.70
2019-01-21T08:02:46.493Z,-2.70
2019-01-21T08:05:30.097Z,-2.70
2019-01-21T08:08:04.593Z,-2.70
2019-01-21T08:10:59.010Z,-2.70
2019-01-21T08:13:50.055Z,-2.70
2019-01-21T08:16:35.888Z,-2.70
2019-01-21T08:19:07.433Z,-2.60
2019-01-21T08:21:54.267Z,-2.50
2019-01-21T08:24:34.608Z,-2.50
2019-01-21T08:27:27.592Z,-2.40
2019-01-21T08:30:16.868Z,-2.40
2019-01-21T08:33:22.242Z,-2.30
2019-01-21T08:35:59.858Z,-2.30
2019-01-21T08:38:34.104Z,-2.10
2019-01-21T08:41:32.863Z,-2.00
2019-01-21T08:44:26.944Z,-2.00
2019-01-21T08:47:10.331Z,-2.00
2019-01-21T08:50:02.978Z,-1.90
2019-01-21T08:52:37.469Z,-1.90
2019-01-21T08:55:09.108Z,-1.90
2019-01-21T08:58:06.277Z,-1.90
2019-01-21T09:00:46.928Z,-1.80
2019-01-21T09:03:19.274Z,-1.70
2019-01-21T09:05:59.301Z,-1.70
2019-01-21T09:08:58.119Z,-1.70
2019-01-21T09:11:59.800Z,-1.50
2019-01-21T09:14:43.327Z,-1.40
2019-01-21T09:17:26.680Z,-1.20
2019-01-21T09:20:21.106Z,-1.00
2019-01-21T09:22:52.699Z,-1.00
2019-01-21T09:25:30.205Z,-0.90
2019-01-21T09:28:13.847Z,-0.70
2019-01-21T09:30:51.172Z,-0.50
2019-01-21T09:33:31.415Z,-0.20
2019-01-21T09:36:18.037Z,0.00
2019-01-21T09:39:06.217Z,0.50
2019-01-21T09:41:49.541Z,1.00
2019-01-21T09:44:26.887Z,1.50
2019-01-21T09:46:54.661Z,2.20
2019-01-21T09:49:22.095Z,2.30
2019-01-21T09:51:53.331Z,2.80
2019-01-21T09:54:22.721Z,2.90
2019-01-21T09:56:54.108Z,3.50
2019-01-21T09:59:24.255Z,4.60
2019-01-21T10:01:56.171Z,5.70
2019-01-21T10:04:36.643Z,7.60
2019-01-21T10:07:16.548Z,9.60
2019-01-21T10:09:55.308Z,10.70
2019-01-21T10:12:55.594Z,12.40
2019-01-21T10:15:48.397Z,12.90
2019-01-21T10:18:37.804Z,11.50
2019-01-21T10:21:39.649Z,14.20
2019-01-21T10:24:29.182Z,14.50
2019-01-21T10:27:03.210Z,13.60
2019-01-21T10:29:53.238Z,12.40
2019-01-21T10:32:42.920Z,12.80
2019-01-21T10:35:26.534Z,13.50
2019-01-21T10:38:16.348Z,14.90
2019-01-21T10:40:53.681Z,15.50
2019-01-21T10:43:41.782Z,14.90
2019-01-21T10:46:13.376Z,16.10
2019-01-21T10:49:18.741Z,16.50
2019-01-21T10:52:01.932Z,17.10
2019-01-21T10:54:42.165Z,17.00
2019-01-21T10:57:19.489Z,16.50
2019-01-21T10:59:59.814Z,15.50
2019-01-21T11:02:46.455Z,14.80
2019-01-21T11:05:18.032Z,14.50
2019-01-21T11:08:08.009Z,14.60
2019-01-21T11:10:45.462Z,12.90
2019-01-21T11:13:22.828Z,11.90
2019-01-21T11:16:15.362Z,11.70
2019-01-21T11:18:49.857Z,11.30
2019-01-21T11:21:27.567Z,10.00
2019-01-21T11:24:21.435Z,10.30
2019-01-21T11:27:16.735Z,10.20
2019-01-21T11:29:56.742Z,10.30
2019-01-21T11:32:46.651Z,10.10
2019-01-21T11:35:21.484Z,8.80
2019-01-21T11:38:02.244Z,9.00
2019-01-21T11:40:38.229Z,8.90
2019-01-21T11:43:09.863Z,8.50
2019-01-21T11:46:11.967Z,8.00
2019-01-21T11:48:49.051Z,7.50
2019-01-21T11:51:52.627Z,7.20
2019-01-21T11:54:36.269Z,7.50
2019-01-21T11:57:41.172Z,7.70
2019-01-21T12:00:32.484Z,7.80
2019-01-21T12:03:13.055Z,7.20
2019-01-21T12:05:44.236Z,7.00
2019-01-21T12:08:49.478Z,7.20
2019-01-21T12:11:23.704Z,6.80
2019-01-21T12:14:07.289Z,6.10
2019-01-21T12:16:59.756Z,6.00
2019-01-21T12:19:31.393Z,5.80
2019-01-21T12:22:05.613Z,6.00
2019-01-21T12:24:34.591Z,5.50
2019-01-21T12:27:17.962Z,5.90
2019-01-21T12:29:55.306Z,5.90
2019-01-21T12:32:48.089Z,6.00
2019-01-21T12:35:22.316Z,5.50
2019-01-21T12:37:56.760Z,5.40
2019-01-21T12:40:49.754Z,5.00
2019-01-21T12:43:30.143Z,4.30
2019-01-21T12:46:07.615Z,4.60
2019-01-21T12:48:39.219Z,4.90
2019-01-21T12:51:28.982Z,5.40
2019-01-21T12:54:03.339Z,6.00
2019-01-21T12:56:46.745Z,5.80
2019-01-21T12:59:24.036Z,5.80
2019-01-21T13:01:58.293Z,5.70
2019-01-21T13:04:32.563Z,4.70
2019-01-21T13:07:09.836Z,4.60
2019-01-21T13:09:59.258Z,4.60
2019-01-21T13:12:53.699Z,5.20
2019-01-21T13:15:28.201Z,4.80
2019-01-21T13:18:08.250Z,4.40
2019-01-21T13:20:39.789Z,4.40
2019-01-21T13:23:14.004Z,3.80
2019-01-21T13:26:19.254Z,3.60
2019-01-21T13:28:50.796Z,3.80
2019-01-21T13:31:37.313Z,4.20
2019-01-21T13:34:12.308Z,4.20
2019-01-21T13:37:08.318Z,4.20
2019-01-21T13:39:42.928Z,3.90
2019-01-21T13:42:14.542Z,3.70
2019-01-21T13:44:52.356Z,3.40
2019-01-21T13:47:36.052Z,3.10
2019-01-21T13:50:16.386Z,3.10
2019-01-21T13:53:03.023Z,3.10
2019-01-21T13:55:43.275Z,2.90
2019-01-21T13:58:26.688Z,3.10
2019-01-21T14:01:07.082Z,2.90
2019-01-21T14:03:39.546Z,2.60
2019-01-21T14:06:26.354Z,2.40
2019-01-21T14:09:16.981Z,2.10
2019-01-21T14:11:57.651Z,1.90
2019-01-21T14:14:34.880Z,1.80
2019-01-21T14:17:12.301Z,1.70
2019-01-21T14:19:54.075Z,1.70
2019-01-21T14:22:43.657Z,1.80
2019-01-21T14:25:33.030Z,1.80
2019-01-21T14:28:13.474Z,1.70
2019-01-21T14:30:54.043Z,1.70
2019-01-21T14:33:31.523Z,1.50
2019-01-21T14:36:12.067Z,1.40
2019-01-21T14:38:49.979Z,1.30
2019-01-21T14:41:24.100Z,1.30
2019-01-21T14:44:18.770Z,1.20
2019-01-21T14:47:05.484Z,1.20
2019-01-21T14:49:55.395Z,1.10
2019-01-21T14:52:49.669Z,1.00
2019-01-21T14:55:24.368Z,0.90
2019-01-21T14:58:10.774Z,0.90
2019-01-21T15:00:51.492Z,0.80
2019-01-21T15:03:52.227Z,0.80
2019-01-21T15:06:27.012Z,0.80
2019-01-21T15:09:10.470Z,0.60
2019-01-21T15:12:15.388Z,0.60
2019-01-21T15:15:01.918Z,0.50
2019-01-21T15:17:57.746Z,0.40
2019-01-21T15:20:29.398Z,0.30
2019-01-21T15:23:03.688Z,0.30
2019-01-21T15:25:35.436Z,0.10
2019-01-21T15:28:28.450Z,0.00
2019-01-21T15:31:09.063Z,-0.20
2019-01-21T15:33:58.873Z,-0.30
2019-01-21T15:36:53.145Z,-0.40
2019-01-21T15:39:31.817Z,-0.60
2019-01-21T15:43:37.375Z,-0.70
2019-01-21T15:46:14.830Z,-0.70
2019-01-21T15:48:52.321Z,-0.80
2019-01-21T15:51:38.802Z,-0.80
2019-01-21T15:54:13.315Z,-0.90
2019-01-21T15:56:56.857Z,-1.20
2019-01-21T15:59:49.738Z,-1.40
2019-01-21T16:02:36.077Z,-1.40
2019-01-21T16:05:11.718Z,-1.50
2019-01-21T16:07:43.488Z,-1.60
2019-01-21T16:10:21.301Z,-1.70
2019-01-21T16:12:53.022Z,-1.90
2019-01-21T16:15:33.255Z,-2.10
2019-01-21T16:18:10.501Z,-2.20
2019-01-21T16:20:42.035Z,-2.30
2019-01-21T16:23:22.707Z,-2.50
2019-01-21T16:25:52.230Z,-2.50
2019-01-21T16:28:23.848Z,-2.60
2019-01-21T16:30:58.329Z,-2.50
2019-01-21T16:33:51.249Z,-2.60
2019-01-21T16:36:54.970Z,-2.60
2019-01-21T16:39:59.928Z,-2.70
2019-01-21T16:42:27.337Z,-2.70
2019-01-21T16:44:55.895Z,-2.70
2019-01-21T16:47:24.527Z,-2.80
2019-01-21T16:49:53.076Z,-2.80
2019-01-21T16:52:21.700Z,-2.80
2019-01-21T16:54:50.311Z,-2.90
2019-01-21T16:57:18.901Z,-3.00
2019-01-21T16:59:47.380Z,-2.90
2019-01-21T17:02:16.087Z,-2.90
2019-01-21T17:04:44.518Z,-2.90
2019-01-21T17:07:13.011Z,-3.10
2019-01-21T17:09:41.676Z,-3.20
2019-01-21T17:12:10.244Z,-3.30
2019-01-21T17:14:39.157Z,-3.40
2019-01-21T17:17:07.873Z,-3.40
2019-01-21T17:19:36.503Z,-3.40
2019-01-21T17:22:05.212Z,-3.40
2019-01-21T17:24:33.735Z,-3.30
2019-01-21T17:27:02.202Z,-3.30
2019-01-21T17:29:30.811Z,-3.30
2019-01-21T17:31:59.304Z,-3.30
2019-01-21T17:34:27.756Z,-3.30
2019-01-21T17:36:56.308Z,-3.30
2019-01-21T17:39:24.769Z,-3.30
2019-01-21T17:41:53.263Z,-3.40
2019-01-21T17:44:21.851Z,-3.30
2019-01-21T17:46:50.546Z,-3.40
2019-01-21T17:49:19.008Z,-3.40
2019-01-21T17:51:47.469Z,-3.40
2019-01-21T17:54:16.009Z,-3.50
2019-01-21T17:56:44.653Z,-3.50
2019-01-21T17:59:13.398Z,-3.50
2019-01-21T18:01:41.866Z,-3.50
2019-01-21T18:04:10.319Z,-3.50
2019-01-21T18:06:38.834Z,-3.50
2019-01-21T18:09:08.448Z,-3.60
2019-01-21T18:11:41.288Z,-3.60
2019-01-21T18:14:07.247Z,-3.60
2019-01-21T18:16:35.721Z,-3.70
2019-01-21T18:19:04.784Z,-3.70
2019-01-21T18:21:39.972Z,-3.80
2019-01-21T18:24:04.181Z,-3.80
2019-01-21T18:26:32.650Z,-3.70
2019-01-21T18:29:01.113Z,-3.80
2019-01-21T18:31:29.576Z,-3.80
2019-01-21T18:33:58.178Z,-3.90
2019-01-21T18:36:26.762Z,-4.00
2019-01-21T18:38:55.291Z,-3.90
2019-01-21T18:41:23.884Z,-3.90
2019-01-21T18:43:52.420Z,-4.00
2019-01-21T18:46:20.911Z,-4.00
2019-01-21T18:48:49.379Z,-4.10
2019-01-21T18:51:17.857Z,-4.10
2019-01-21T18:53:46.397Z,-4.10
2019-01-21T18:56:15.124Z,-4.20
2019-01-21T18:58:43.973Z,-4.30
2019-01-21T19:01:12.598Z,-4.30
2019-01-21T19:03:41.123Z,-4.40
2019-01-21T19:06:09.669Z,-4.40
2019-01-21T19:08:38.127Z,-4.30
2019-01-21T19:11:06.748Z,-4.30
2019-01-21T19:13:35.219Z,-4.40
2019-01-21T19:16:03.742Z,-4.40
2019-01-21T19:18:32.257Z,-4.50
2019-01-21T19:21:00.923Z,-4.60
2019-01-21T19:23:29.435Z,-4.60
2019-01-21T19:25:57.945Z,-4.60
2019-01-21T19:28:26.431Z,-4.60
2019-01-21T19:30:54.902Z,-4.70
2019-01-21T19:33:23.378Z,-4.70
2019-01-21T19:35:51.826Z,-4.80
2019-01-21T19:38:20.305Z,-4.90
2019-01-21T19:40:48.766Z,-4.90
2019-01-21T19:43:17.229Z,-5.00
2019-01-21T19:45:45.693Z,-5.00
2019-01-21T19:48:14.158Z,-5.00
2019-01-21T19:50:42.639Z,-5.00
2019-01-21T19:53:11.190Z,-4.90
2019-01-21T19:55:41.199Z,-4.90
2019-01-21T19:58:10.335Z,-5.00
2019-01-21T20:00:38.866Z,-5.10
2019-01-21T20:03:07.368Z,-5.20
2019-01-21T20:05:36.084Z,-5.30
2019-01-21T20:08:04.701Z,-5.30
2019-01-21T20:10:33.710Z,-5.30
2019-01-21T20:13:02.787Z,-5.40
2019-01-21T20:15:31.991Z,-5.40
2019-01-21T20:18:00.741Z,-5.40
2019-01-21T20:20:36.219Z,-5.50
2019-01-21T20:23:07.131Z,-5.50
2019-01-21T20:25:41.061Z,-5.60
2019-01-21T20:28:09.738Z,-5.50
2019-01-21T20:30:40.552Z,-5.50
2019-01-21T20:33:09.190Z,-5.50
2019-01-21T20:35:38.591Z,-5.70
2019-01-21T20:38:08.577Z,-5.70
2019-01-21T20:40:37.721Z,-5.80
2019-01-21T20:43:06.824Z,-5.80
2019-01-21T20:45:36.525Z,-5.70
2019-01-21T20:48:05.492Z,-5.80
2019-01-21T20:50:35.382Z,-5.80
2019-01-21T20:53:04.310Z,-5.90
2019-01-21T20:55:33.408Z,-5.90
2019-01-21T20:58:01.853Z,-5.90
2019-01-21T21:00:31.063Z,-5.80
2019-01-21T21:03:00.129Z,-5.80
2019-01-21T21:05:28.711Z,-5.80
2019-01-21T21:07:59.010Z,-5.80
2019-01-21T21:10:27.941Z,-5.80
2019-01-21T21:12:57.618Z,-5.80
2019-01-21T21:15:32.646Z,-5.80
2019-01-21T21:18:01.250Z,-5.90
2019-01-21T21:20:29.969Z,-5.80
2019-01-21T21:22:58.524Z,-5.90
2019-01-21T21:25:27.244Z,-6.00
2019-01-21T21:27:55.763Z,-6.10
2019-01-21T21:30:29.757Z,-6.20
2019-01-21T21:32:58.630Z,-6.30
2019-01-21T21:35:27.432Z,-6.40
2019-01-21T21:37:56.823Z,-6.40
2019-01-21T21:40:26.411Z,-6.40
2019-01-21T21:42:54.925Z,-6.40
2019-01-21T21:45:23.594Z,-6.30
2019-01-21T21:47:52.482Z,-6.30
2019-01-21T21:50:29.188Z,-6.30
2019-01-21T21:52:57.798Z,-6.20
2019-01-21T21:55:26.423Z,-6.30
2019-01-21T21:57:54.956Z,-6.20
2019-01-21T22:00:28.022Z,-6.30
2019-01-21T22:02:56.548Z,-6.40
2019-01-21T22:05:25.422Z,-6.30
2019-01-21T22:07:53.965Z,-6.40
2019-01-21T22:10:26.960Z,-6.50
2019-01-21T22:12:55.497Z,-6.50
2019-01-21T22:15:25.171Z,-6.50
2019-01-21T22:17:53.792Z,-6.50
2019-01-21T22:20:23.986Z,-6.50
2019-01-21T22:22:52.975Z,-6.50
2019-01-21T22:25:21.509Z,-6.50
2019-01-21T22:27:50.054Z,-6.40
2019-01-21T22:30:23.407Z,-6.50
2019-01-21T22:32:52.017Z,-6.70
2019-01-21T22:35:20.599Z,-6.70
2019-01-21T22:37:49.517Z,-6.80
2019-01-21T22:40:20.014Z,-6.70
2019-01-21T22:42:48.946Z,-6.70
2019-01-21T22:45:18.804Z,-6.70
2019-01-21T22:47:50.784Z,-6.80
2019-01-21T22:50:20.015Z,-6.70
2019-01-21T22:52:48.562Z,-6.80
2019-01-21T22:55:18.228Z,-6.90
2019-01-21T22:57:46.768Z,-6.80
2019-01-21T23:00:34.908Z,-6.80
2019-01-21T23:03:09.580Z,-6.90
2019-01-21T23:05:38.319Z,-7.10
2019-01-21T23:08:06.890Z,-7.20
2019-01-21T23:10:35.765Z,-7.30
2019-01-21T23:13:04.843Z,-7.30
2019-01-21T23:15:33.413Z,-6.80
2019-01-21T23:18:04.367Z,-7.20
2019-01-21T23:20:32.363Z,-7.10
2019-01-21T23:23:00.884Z,-7.00
2019-01-21T23:25:29.411Z,-7.10
2019-01-21T23:27:57.991Z,-7.20
2019-01-21T23:30:26.621Z,-7.10
2019-01-21T23:32:55.137Z,-7.10
2019-01-21T23:35:23.772Z,-7.20
2019-01-21T23:37:52.577Z,-7.20
2019-01-21T23:40:21.183Z,-7.20
2019-01-21T23:42:49.644Z,-7.20
2019-01-21T23:45:18.144Z,-7.20
2019-01-21T23:47:46.809Z,-7.20
2019-01-21T23:50:16.997Z,-7.20
2019-01-21T23:52:45.539Z,-7.20
2019-01-21T23:55:14.516Z,-7.20
2019-01-21T23:57:43.214Z,-7.30
